createdAt,value
2022-12-13T00:01:28.711Z,39.20
2022-12-13T00:03:57.778Z,37.40
2022-12-13T00:06:25.142Z,37.30
2022-12-13T00:08:53.010Z,37.30
2022-12-13T00:11:19.936Z,37.40
2022-12-13T00:13:47.895Z,37.30
2022-12-13T00:16:22.646Z,37.40
2022-12-13T00:18:56.836Z,37.40
2022-12-13T00:21:26.341Z,37.30
2022-12-13T00:23:53.871Z,37.30
2022-12-13T00:26:23.250Z,37.90
2022-12-13T00:28:51.192Z,37.40
2022-12-13T00:31:53.621Z,37.40
2022-12-13T00:36:33.884Z,37.30
2022-12-13T00:39:00.830Z,37.30
2022-12-13T00:41:30.337Z,37.30
2022-12-13T00:43:57.872Z,37.40
2022-12-13T00:46:24.775Z,37.40
2022-12-13T00:48:57.185Z,37.30
2022-12-13T00:51:26.292Z,37.30
2022-12-13T00:53:53.519Z,37.30
2022-12-13T00:56:25.432Z,37.40
2022-12-13T00:58:53.276Z,37.30
2022-12-13T01:01:24.308Z,37.30
2022-12-13T01:03:56.542Z,37.30
2022-12-13T01:06:35.653Z,37.30
2022-12-13T01:09:05.730Z,37.90
2022-12-13T01:11:32.514Z,40.10
2022-12-13T01:13:59.234Z,37.30
2022-12-13T01:18:53.358Z,37.30
2022-12-13T01:21:23.440Z,37.20
2022-12-13T01:23:50.897Z,37.20
2022-12-13T01:26:20.217Z,37.20
2022-12-13T01:31:18.326Z,37.10
2022-12-13T01:33:45.559Z,37.70
2022-12-13T01:36:16.154Z,37.10
2022-12-13T01:38:43.121Z,37.10
2022-12-13T01:41:17.871Z,37.10
2022-12-13T01:43:47.618Z,37.10
2022-12-13T01:46:16.380Z,37.10
2022-12-13T01:49:20.916Z,37.10
2022-12-13T01:52:02.797Z,37.10
2022-12-13T01:54:35.087Z,37.00
2022-12-13T01:57:06.544Z,37.10
2022-12-13T01:59:39.395Z,37.10
2022-12-13T02:02:08.604Z,37.10
2022-12-13T02:04:45.134Z,37.10
2022-12-13T02:07:22.846Z,37.10
2022-12-13T02:09:56.647Z,37.10
2022-12-13T02:12:30.519Z,37.00
2022-12-13T02:15:07.330Z,36.90
2022-12-13T02:18:11.406Z,36.90
2022-12-13T02:20:56.292Z,37.50
2022-12-13T02:23:48.006Z,36.90
2022-12-13T02:26:32.797Z,36.90
2022-12-13T02:29:05.317Z,36.80
2022-12-13T02:31:54.397Z,36.80
2022-12-13T02:34:36.316Z,36.80
2022-12-13T02:37:20.168Z,37.30
2022-12-13T02:40:04.674Z,36.80
2022-12-13T02:43:14.910Z,37.40
2022-12-13T02:46:12.524Z,38.20
2022-12-13T02:48:41.533Z,36.70
2022-12-13T02:51:11.589Z,36.70
2022-12-13T02:53:41.228Z,36.70
2022-12-13T02:56:07.919Z,36.60
2022-12-13T02:58:40.601Z,36.60
2022-12-13T03:01:27.633Z,36.60
2022-12-13T03:04:20.083Z,37.20
2022-12-13T03:07:11.924Z,36.60
2022-12-13T03:09:55.314Z,36.50
2022-12-13T03:13:13.498Z,36.60
2022-12-13T03:15:54.339Z,36.50
2022-12-13T03:18:23.571Z,37.20
2022-12-13T03:20:58.689Z,36.50
2022-12-13T03:23:26.509Z,38.60
2022-12-13T03:26:08.609Z,36.50
2022-12-13T03:28:35.798Z,38.20
2022-12-13T03:31:02.696Z,36.40
2022-12-13T03:33:29.618Z,36.50
2022-12-13T03:35:56.844Z,36.40
2022-12-13T03:38:24.696Z,36.50
2022-12-13T03:40:55.780Z,36.40
2022-12-13T03:43:23.528Z,36.40
2022-12-13T03:45:51.831Z,36.40
2022-12-13T03:48:22.642Z,36.40
2022-12-13T03:50:52.376Z,36.40
2022-12-13T03:53:22.801Z,36.40
2022-12-13T03:56:00.960Z,36.40
2022-12-13T03:58:35.984Z,36.30
2022-12-13T04:01:08.894Z,36.30
2022-12-13T04:03:37.016Z,36.30
2022-12-13T04:06:04.749Z,36.20
2022-12-13T04:08:31.783Z,36.20
2022-12-13T04:10:58.992Z,36.20
2022-12-13T04:13:34.766Z,36.20
2022-12-13T04:16:02.990Z,36.20
2022-12-13T04:18:29.894Z,36.20
2022-12-13T04:20:57.360Z,36.20
2022-12-13T04:23:24.580Z,36.20
2022-12-13T04:25:51.603Z,36.20
2022-12-13T04:28:22.358Z,36.20
2022-12-13T04:30:53.527Z,36.30
2022-12-13T04:33:24.332Z,36.20
2022-12-13T04:35:51.522Z,36.20
2022-12-13T04:38:19.377Z,36.20
2022-12-13T04:40:46.685Z,36.20
2022-12-13T04:43:13.363Z,36.20
2022-12-13T04:45:40.280Z,36.20
2022-12-13T04:48:08.091Z,36.10
2022-12-13T04:50:35.542Z,36.10
2022-12-13T04:53:02.522Z,36.10
2022-12-13T04:55:29.338Z,36.20
2022-12-13T04:57:56.223Z,36.10
2022-12-13T05:00:23.163Z,36.10
2022-12-13T05:02:50.176Z,36.10
2022-12-13T05:05:17.532Z,36.10
2022-12-13T05:07:44.500Z,36.10
2022-12-13T05:12:39.055Z,36.10
2022-12-13T05:15:06.378Z,36.10
2022-12-13T05:17:33.552Z,36.10
2022-12-13T05:20:00.542Z,36.10
2022-12-13T05:22:27.328Z,36.00
2022-12-13T05:24:54.131Z,36.00
2022-12-13T05:27:24.594Z,36.00
2022-12-13T05:30:04.962Z,35.90
2022-12-13T05:32:43.675Z,36.50
2022-12-13T05:35:23.068Z,35.90
2022-12-13T05:37:55.239Z,35.90
2022-12-13T05:40:26.771Z,35.80
2022-12-13T05:43:01.719Z,35.80
2022-12-13T05:45:29.856Z,35.80
2022-12-13T05:47:58.263Z,35.80
2022-12-13T05:50:25.265Z,35.80
2022-12-13T05:52:52.414Z,35.80
2022-12-13T05:55:19.746Z,35.80
2022-12-13T05:57:50.641Z,35.80
2022-12-13T06:00:30.006Z,35.80
2022-12-13T06:03:01.038Z,35.80
2022-12-13T06:05:31.686Z,35.80
2022-12-13T06:07:59.074Z,35.80
2022-12-13T06:10:34.763Z,35.80
2022-12-13T06:13:21.460Z,35.80
2022-12-13T06:15:52.675Z,35.80
2022-12-13T06:18:32.729Z,35.80
2022-12-13T06:21:01.195Z,35.80
2022-12-13T06:23:29.395Z,35.80
2022-12-13T06:25:56.510Z,35.80
2022-12-13T06:28:23.728Z,35.80
2022-12-13T06:30:53.706Z,35.70
2022-12-13T06:33:23.142Z,35.80
2022-12-13T06:35:52.494Z,35.80
2022-12-13T06:38:32.121Z,35.80
2022-12-13T06:41:10.386Z,35.80
2022-12-13T06:43:37.330Z,35.80
2022-12-13T06:46:05.562Z,35.90
2022-12-13T06:48:32.726Z,36.00
2022-12-13T06:51:03.841Z,36.00
2022-12-13T06:53:31.139Z,36.00
2022-12-13T06:56:13.148Z,36.00
2022-12-13T06:58:41.524Z,36.00
2022-12-13T07:01:15.094Z,37.90
2022-12-13T07:03:51.614Z,36.00
2022-12-13T07:06:21.309Z,36.00
2022-12-13T07:08:51.537Z,35.90
2022-12-13T07:11:22.251Z,35.90
2022-12-13T07:13:49.111Z,35.90
2022-12-13T07:16:15.950Z,35.90
2022-12-13T07:18:42.849Z,35.90
2022-12-13T07:21:22.175Z,35.90
2022-12-13T07:23:55.143Z,35.80
2022-12-13T07:26:22.753Z,35.80
2022-12-13T07:28:54.661Z,35.80
2022-12-13T07:31:22.784Z,35.90
2022-12-13T07:33:52.206Z,35.80
2022-12-13T07:36:21.306Z,35.80
2022-12-13T07:38:56.484Z,35.90
2022-12-13T07:41:24.868Z,35.80
2022-12-13T07:43:56.147Z,35.80
2022-12-13T07:46:32.453Z,35.80
2022-12-13T07:49:04.525Z,35.80
2022-12-13T07:51:34.968Z,35.90
2022-12-13T08:01:35.058Z,35.90
2022-12-13T08:08:58.398Z,35.90
2022-12-13T08:11:25.111Z,36.00
2022-12-13T08:13:53.642Z,36.00
2022-12-13T08:19:02.463Z,36.80
2022-12-13T08:21:56.792Z,37.80
2022-12-13T08:24:29.959Z,38.30
2022-12-13T08:27:02.164Z,38.70
2022-12-13T08:29:33.175Z,39.10
2022-12-13T08:32:12.787Z,39.10
2022-12-13T08:37:08.072Z,39.30
2022-12-13T08:39:37.026Z,39.40
2022-12-13T08:42:16.812Z,39.50
2022-12-13T08:44:51.989Z,39.50
2022-12-13T08:47:24.225Z,39.50
2022-12-13T08:49:53.951Z,39.50
2022-12-13T08:52:23.681Z,39.60
2022-12-13T08:54:50.993Z,39.60
2022-12-13T08:57:18.846Z,39.50
2022-12-13T08:59:47.221Z,39.50
2022-12-13T09:02:15.330Z,39.50
2022-12-13T09:04:42.843Z,39.50
2022-12-13T09:12:10.286Z,39.50
2022-12-13T09:14:45.198Z,39.50
2022-12-13T09:19:58.480Z,39.50
2022-12-13T09:29:57.967Z,39.00
2022-12-13T09:32:25.559Z,38.90
2022-12-13T09:34:52.428Z,38.70
2022-12-13T09:42:30.273Z,38.20
2022-12-13T09:45:04.337Z,38.10
2022-12-13T09:47:36.868Z,38.00
2022-12-13T09:50:14.942Z,38.00
2022-12-13T09:52:44.106Z,37.90
2022-12-13T09:55:23.941Z,37.80
2022-12-13T09:57:52.694Z,37.80
2022-12-13T10:00:22.232Z,37.60
2022-12-13T10:02:57.909Z,37.80
2022-12-13T10:08:12.830Z,37.50
2022-12-13T10:13:26.157Z,37.30
2022-12-13T10:16:02.250Z,37.30
2022-12-13T10:18:41.351Z,37.20
2022-12-13T10:21:18.104Z,37.20
2022-12-13T10:26:37.639Z,37.20
2022-12-13T10:29:06.073Z,37.10
2022-12-13T10:31:41.481Z,37.00
2022-12-13T10:34:18.881Z,37.30
2022-12-13T10:36:45.941Z,37.30
2022-12-13T10:39:41.742Z,37.40
2022-12-13T10:42:22.766Z,37.80
2022-12-13T10:45:16.077Z,37.90
2022-12-13T10:47:50.790Z,37.90
2022-12-13T10:50:27.201Z,38.00
2022-12-13T10:52:56.559Z,38.30
2022-12-13T10:55:28.689Z,38.20
2022-12-13T10:57:58.729Z,38.20
2022-12-13T11:03:10.007Z,38.30
2022-12-13T11:05:38.210Z,38.30
2022-12-13T11:08:37.387Z,38.30
2022-12-13T11:11:06.842Z,38.30
2022-12-13T11:13:54.026Z,38.30
2022-12-13T11:16:31.778Z,38.30
2022-12-13T11:19:28.580Z,38.30
2022-12-13T11:21:55.754Z,38.30
2022-12-13T11:24:35.727Z,38.30
2022-12-13T11:27:22.014Z,38.30
2022-12-13T11:30:09.417Z,38.30
2022-12-13T11:35:25.964Z,38.30
2022-12-13T11:38:25.862Z,38.30
2022-12-13T11:41:31.179Z,38.30
2022-12-13T11:44:08.354Z,38.30
2022-12-13T11:46:54.148Z,38.40
2022-12-13T11:49:42.354Z,38.30
2022-12-13T11:52:34.690Z,38.40
2022-12-13T11:57:44.418Z,38.30
2022-12-13T12:00:34.474Z,38.40
2022-12-13T12:03:16.324Z,38.30
2022-12-13T12:06:12.614Z,38.30
2022-12-13T12:08:47.261Z,38.40
2022-12-13T12:12:02.074Z,38.40
2022-12-13T12:14:48.241Z,38.40
2022-12-13T12:17:23.764Z,38.30
2022-12-13T12:19:57.374Z,38.20
2022-12-13T12:22:47.629Z,38.10
2022-12-13T12:25:22.794Z,38.10
2022-12-13T12:30:42.381Z,37.90
2022-12-13T12:33:27.590Z,37.90
2022-12-13T12:36:17.136Z,37.90
2022-12-13T12:38:44.337Z,37.80
2022-12-13T12:41:49.102Z,37.70
2022-12-13T12:50:31.233Z,37.60
2022-12-13T12:53:25.857Z,37.50
2022-12-13T12:56:15.805Z,37.50
2022-12-13T12:59:01.139Z,37.50
2022-12-13T13:01:46.574Z,38.20
2022-12-13T13:04:22.414Z,37.50
2022-12-13T13:07:03.911Z,37.40
2022-12-13T13:09:31.950Z,37.40
2022-12-13T13:14:37.743Z,37.40
2022-12-13T13:17:16.639Z,37.40
2022-12-13T13:19:47.485Z,37.30
2022-12-13T13:22:44.252Z,37.30
2022-12-13T13:28:12.613Z,37.40
2022-12-13T13:31:07.942Z,37.50
2022-12-13T13:33:52.846Z,37.70
2022-12-13T13:36:52.607Z,37.70
2022-12-13T13:39:38.746Z,37.90
2022-12-13T13:45:14.454Z,38.00
2022-12-13T13:47:42.840Z,38.00
2022-12-13T13:50:34.690Z,38.00
2022-12-13T13:53:07.656Z,38.00
2022-12-13T13:56:27.779Z,38.10
2022-12-13T13:59:13.408Z,38.10
2022-12-13T14:02:15.554Z,38.10
2022-12-13T14:05:20.085Z,38.10
2022-12-13T14:08:14.707Z,38.20
2022-12-13T14:11:11.589Z,38.30
2022-12-13T14:13:57.034Z,38.30
2022-12-13T14:19:18.747Z,38.50
2022-12-13T14:22:08.300Z,38.60
2022-12-13T14:24:50.522Z,38.60
2022-12-13T14:27:35.406Z,38.60
2022-12-13T14:30:27.149Z,38.60
2022-12-13T14:35:30.114Z,38.00
2022-12-13T14:38:04.761Z,38.70
2022-12-13T14:40:37.298Z,38.60
2022-12-13T14:43:04.449Z,38.60
2022-12-13T14:45:38.737Z,38.70
2022-12-13T14:48:14.721Z,38.60
2022-12-13T14:50:44.521Z,38.60
2022-12-13T14:53:24.116Z,38.60
2022-12-13T14:56:28.069Z,38.60
2022-12-13T14:59:03.574Z,38.60
2022-12-13T15:01:35.765Z,38.60
2022-12-13T15:04:19.418Z,38.70
2022-12-13T15:06:48.699Z,38.60
2022-12-13T15:09:17.062Z,38.60
2022-12-13T15:11:45.282Z,38.60
2022-12-13T15:14:22.030Z,38.60
2022-12-13T15:16:51.208Z,38.60
2022-12-13T15:19:32.082Z,38.60
2022-12-13T15:22:17.471Z,38.70
2022-12-13T15:24:48.966Z,38.60
2022-12-13T15:27:27.635Z,38.70
2022-12-13T15:34:52.809Z,38.60
2022-12-13T15:37:29.286Z,38.70
2022-12-13T15:40:00.596Z,38.60
2022-12-13T15:45:03.518Z,38.60
2022-12-13T15:47:30.845Z,38.60
2022-12-13T15:50:03.624Z,38.50
2022-12-13T15:52:34.552Z,38.60
2022-12-13T15:55:05.058Z,38.60
2022-12-13T15:57:34.487Z,38.50
2022-12-13T16:00:31.365Z,38.40
2022-12-13T16:03:09.309Z,39.10
2022-12-13T16:05:40.493Z,38.30
2022-12-13T16:08:18.184Z,38.30
2022-12-13T16:10:49.912Z,38.20
2022-12-13T16:13:31.536Z,38.20
2022-12-13T16:16:27.053Z,38.10
2022-12-13T16:18:59.522Z,38.10
2022-12-13T16:21:27.880Z,38.10
2022-12-13T16:23:54.885Z,38.00
2022-12-13T16:26:25.530Z,37.90
2022-12-13T16:28:54.010Z,37.90
2022-12-13T16:31:23.202Z,37.80
2022-12-13T16:33:50.053Z,40.40
2022-12-13T16:36:17.434Z,37.80
2022-12-13T16:38:44.397Z,37.80
2022-12-13T16:41:11.442Z,37.70
2022-12-13T16:43:48.145Z,37.70
2022-12-13T16:47:14.583Z,37.70
2022-12-13T16:49:08.833Z,37.60
2022-12-13T16:51:35.586Z,37.60
2022-12-13T16:54:02.283Z,37.60
2022-12-13T16:56:28.975Z,37.60
2022-12-13T17:01:23.335Z,37.60
2022-12-13T17:06:23.681Z,37.50
2022-12-13T17:08:50.742Z,37.50
2022-12-13T17:11:18.486Z,37.40
2022-12-13T17:13:47.458Z,37.40
2022-12-13T17:16:14.408Z,37.40
2022-12-13T17:18:41.259Z,37.40
2022-12-13T17:21:09.825Z,37.40
2022-12-13T17:23:37.013Z,37.40
2022-12-13T17:26:08.203Z,37.30
2022-12-13T17:28:35.459Z,37.30
2022-12-13T17:31:13.333Z,37.30
2022-12-13T17:33:41.857Z,37.30
2022-12-13T17:36:09.877Z,37.30
2022-12-13T17:38:36.973Z,37.30
2022-12-13T17:41:03.952Z,37.30
2022-12-13T17:46:08.790Z,37.20
2022-12-13T17:48:40.725Z,37.20
2022-12-13T17:51:12.304Z,37.10
2022-12-13T17:53:40.299Z,37.10
2022-12-13T17:56:09.301Z,37.20
2022-12-13T17:58:37.579Z,39.50
2022-12-13T18:01:17.894Z,37.10
2022-12-13T18:03:45.041Z,38.60
2022-12-13T18:06:11.954Z,37.00
2022-12-13T18:08:40.279Z,37.00
2022-12-13T18:11:31.875Z,37.00
2022-12-13T18:13:55.847Z,37.10
2022-12-13T18:16:26.721Z,37.00
2022-12-13T18:18:57.051Z,37.00
2022-12-13T18:21:25.433Z,37.10
2022-12-13T18:23:55.054Z,37.00
2022-12-13T18:26:24.681Z,36.60
2022-12-13T18:28:51.970Z,37.00
2022-12-13T18:31:21.872Z,37.00
2022-12-13T18:33:49.814Z,36.90
2022-12-13T18:36:18.463Z,36.90
2022-12-13T18:38:45.366Z,35.00
2022-12-13T18:41:17.887Z,36.90
2022-12-13T18:43:45.172Z,36.90
2022-12-13T18:46:14.138Z,36.90
2022-12-13T18:48:41.240Z,36.90
2022-12-13T18:51:09.667Z,36.90
2022-12-13T18:53:37.623Z,37.40
2022-12-13T18:56:17.483Z,38.90
2022-12-13T18:58:46.618Z,36.80
2022-12-13T19:01:15.505Z,36.70
2022-12-13T19:03:43.951Z,36.80
2022-12-13T19:06:16.715Z,36.70
2022-12-13T19:08:43.584Z,36.70
2022-12-13T19:11:10.902Z,36.70
2022-12-13T19:13:37.626Z,36.80
2022-12-13T19:16:14.490Z,36.70
2022-12-13T19:18:42.249Z,37.20
2022-12-13T19:21:12.898Z,36.70
2022-12-13T19:23:40.880Z,36.70
2022-12-13T19:26:13.903Z,36.70
2022-12-13T19:28:42.110Z,36.70
2022-12-13T19:31:10.851Z,36.60
2022-12-13T19:33:37.698Z,36.60
2022-12-13T19:36:04.893Z,36.60
2022-12-13T19:38:32.510Z,36.60
2022-12-13T19:40:59.278Z,37.30
2022-12-13T19:43:26.544Z,36.60
2022-12-13T19:45:53.431Z,36.60
2022-12-13T19:48:20.106Z,36.60
2022-12-13T19:50:47.245Z,36.50
2022-12-13T19:53:14.044Z,36.60
2022-12-13T19:55:45.288Z,36.60
2022-12-13T19:58:15.073Z,36.60
2022-12-13T20:00:41.754Z,36.50
2022-12-13T20:03:08.504Z,36.60
2022-12-13T20:05:36.131Z,36.60
2022-12-13T20:08:03.121Z,36.50
2022-12-13T20:10:30.372Z,36.50
2022-12-13T20:12:57.260Z,36.50
2022-12-13T20:15:24.105Z,36.50
2022-12-13T20:17:51.660Z,36.40
2022-12-13T20:20:19.504Z,36.40
2022-12-13T20:22:46.702Z,36.50
2022-12-13T20:25:15.534Z,36.50
2022-12-13T20:27:43.973Z,36.50
2022-12-13T20:30:11.198Z,36.40
2022-12-13T20:32:38.278Z,36.40
2022-12-13T20:35:05.342Z,36.40
2022-12-13T20:37:32.027Z,36.40
2022-12-13T20:39:59.526Z,36.40
2022-12-13T20:42:26.365Z,36.40
2022-12-13T20:44:53.098Z,36.40
2022-12-13T20:47:19.820Z,36.40
2022-12-13T20:49:48.440Z,36.40
2022-12-13T20:52:16.915Z,36.40
2022-12-13T20:54:43.543Z,36.40
2022-12-13T20:57:10.193Z,36.30
2022-12-13T20:59:36.864Z,36.40
2022-12-13T21:02:05.461Z,36.30
2022-12-13T21:04:33.646Z,36.30
2022-12-13T21:07:02.461Z,36.30
2022-12-13T21:09:29.171Z,36.30
2022-12-13T21:11:56.177Z,36.30
2022-12-13T21:14:25.724Z,36.30
2022-12-13T21:16:54.912Z,36.30
2022-12-13T21:19:39.585Z,36.30
2022-12-13T21:22:07.478Z,36.40
2022-12-13T21:24:35.287Z,36.60
2022-12-13T21:27:02.268Z,36.30
2022-12-13T21:29:28.935Z,36.30
2022-12-13T21:31:55.963Z,36.40
2022-12-13T21:34:22.893Z,36.30
2022-12-13T21:36:52.099Z,38.80
2022-12-13T21:39:27.559Z,36.30
2022-12-13T21:41:54.631Z,36.40
2022-12-13T21:44:21.567Z,36.30
2022-12-13T21:49:35.792Z,36.30
2022-12-13T21:52:02.586Z,36.30
2022-12-13T21:54:29.337Z,36.30
2022-12-13T21:57:14.804Z,36.30
2022-12-13T21:59:41.593Z,36.20
2022-12-13T22:02:15.819Z,36.20
2022-12-13T22:04:52.145Z,36.20
2022-12-13T22:07:23.633Z,36.30
2022-12-13T22:12:24.134Z,36.20
2022-12-13T22:14:51.885Z,36.20
2022-12-13T22:17:24.946Z,36.20
2022-12-13T22:19:54.624Z,36.20
2022-12-13T22:22:23.188Z,36.20
2022-12-13T22:24:53.783Z,36.10
2022-12-13T22:27:24.374Z,36.20
2022-12-13T22:29:57.110Z,36.20
2022-12-13T22:32:25.588Z,36.60
2022-12-13T22:34:52.401Z,36.20
2022-12-13T22:37:19.323Z,36.20
2022-12-13T22:39:46.221Z,36.20
2022-12-13T22:42:12.943Z,36.20
2022-12-13T22:44:39.829Z,36.20
2022-12-13T22:47:06.791Z,36.10
2022-12-13T22:49:33.536Z,36.20
2022-12-13T22:52:00.255Z,36.20
2022-12-13T22:54:26.981Z,36.10
2022-12-13T22:56:53.747Z,36.20
2022-12-13T22:59:20.450Z,36.20
2022-12-13T23:01:47.759Z,36.10
2022-12-13T23:04:15.185Z,36.20
2022-12-13T23:06:42.178Z,36.10
2022-12-13T23:09:12.212Z,36.10
2022-12-13T23:11:57.940Z,36.20
2022-12-13T23:14:32.948Z,36.80
2022-12-13T23:17:00.513Z,36.10
2022-12-13T23:19:51.532Z,36.10
2022-12-13T23:22:14.422Z,36.10
2022-12-13T23:24:41.130Z,36.10
2022-12-13T23:27:09.176Z,36.10
2022-12-13T23:32:03.093Z,36.10
2022-12-13T23:34:29.812Z,36.10
2022-12-13T23:36:56.550Z,36.00
2022-12-13T23:39:23.306Z,36.00
2022-12-13T23:41:50.160Z,36.10
2022-12-13T23:44:17.483Z,36.10
2022-12-13T23:46:46.487Z,36.10
2022-12-13T23:49:16.421Z,36.10
2022-12-13T23:51:43.421Z,36.10
2022-12-13T23:54:14.513Z,36.10
2022-12-13T23:56:41.219Z,36.10
2022-12-13T23:59:08.019Z,36.10
